createdAt,value
2023-03-06T00:02:10.221Z,6.00
2023-03-06T00:04:37.789Z,6.90
2023-03-06T00:07:05.377Z,6.20
2023-03-06T00:09:32.976Z,7.80
2023-03-06T00:12:00.401Z,6.20
2023-03-06T00:14:27.925Z,5.80
2023-03-06T00:16:58.181Z,6.10
2023-03-06T00:19:25.630Z,6.90
2023-03-06T00:21:53.156Z,6.40
2023-03-06T00:24:20.659Z,6.10
2023-03-06T00:26:48.265Z,5.80
2023-03-06T00:29:15.822Z,5.80
2023-03-06T00:31:46.426Z,6.90
2023-03-06T00:34:13.965Z,6.20
2023-03-06T00:36:41.961Z,4.10
2023-03-06T00:39:09.585Z,5.00
2023-03-06T00:41:37.057Z,6.00
2023-03-06T00:44:04.491Z,7.60
2023-03-06T00:46:32.038Z,5.60
2023-03-06T00:48:59.704Z,6.50
2023-03-06T00:51:27.184Z,6.20
2023-03-06T00:53:54.862Z,7.30
2023-03-06T00:56:22.435Z,6.10
2023-03-06T00:58:49.920Z,7.60
2023-03-06T01:01:17.472Z,6.20
2023-03-06T01:03:45.002Z,5.80
2023-03-06T01:06:12.516Z,6.90
2023-03-06T01:08:40.077Z,5.60
2023-03-06T01:11:07.575Z,4.40
2023-03-06T01:13:35.135Z,6.40
2023-03-06T01:16:02.734Z,6.10
2023-03-06T01:18:30.458Z,5.70
2023-03-06T01:20:57.901Z,5.00
2023-03-06T01:23:25.510Z,7.40
2023-03-06T01:25:53.034Z,5.40
2023-03-06T01:28:20.520Z,5.20
2023-03-06T01:30:48.078Z,5.30
2023-03-06T01:33:15.779Z,8.20
2023-03-06T01:35:43.291Z,6.10
2023-03-06T01:38:10.879Z,8.00
2023-03-06T01:40:38.447Z,9.70
2023-03-06T01:43:05.909Z,6.20
2023-03-06T01:45:33.453Z,6.60
2023-03-06T01:48:00.934Z,4.40
2023-03-06T01:50:28.422Z,6.10
2023-03-06T01:52:56.008Z,6.20
2023-03-06T01:55:23.528Z,5.90
2023-03-06T01:57:52.852Z,6.80
2023-03-06T02:00:20.513Z,6.30
2023-03-06T02:02:47.957Z,6.70
2023-03-06T02:05:15.793Z,4.90
2023-03-06T02:07:43.313Z,5.80
2023-03-06T02:10:10.771Z,6.40
2023-03-06T02:12:38.641Z,7.30
2023-03-06T02:15:06.148Z,5.50
2023-03-06T02:17:33.724Z,5.30
2023-03-06T02:20:01.320Z,5.40
2023-03-06T02:22:28.934Z,6.40
2023-03-06T02:24:56.435Z,5.70
2023-03-06T02:27:23.922Z,6.30
2023-03-06T02:29:51.465Z,5.00
2023-03-06T02:32:18.972Z,6.20
2023-03-06T02:34:46.529Z,5.80
2023-03-06T02:37:14.107Z,6.00
2023-03-06T02:39:41.570Z,6.80
2023-03-06T02:42:09.139Z,7.00
2023-03-06T02:44:36.630Z,5.60
2023-03-06T02:47:04.081Z,5.00
2023-03-06T02:49:31.529Z,6.20
2023-03-06T02:51:58.978Z,6.80
2023-03-06T02:54:26.402Z,5.90
2023-03-06T02:56:53.960Z,5.90
2023-03-06T02:59:21.473Z,5.70
2023-03-06T03:01:49.035Z,6.00
2023-03-06T03:04:16.594Z,5.50
2023-03-06T03:06:44.192Z,5.60
2023-03-06T03:09:11.680Z,5.90
2023-03-06T03:11:39.181Z,5.50
2023-03-06T03:14:06.680Z,5.30
2023-03-06T03:16:34.180Z,5.50
2023-03-06T03:19:01.657Z,6.90
2023-03-06T03:21:29.334Z,6.30
2023-03-06T03:23:56.847Z,5.80
2023-03-06T03:26:24.356Z,6.60
2023-03-06T03:28:51.890Z,7.10
2023-03-06T03:31:19.721Z,3.70
2023-03-06T03:33:47.262Z,7.00
2023-03-06T03:36:14.807Z,6.30
2023-03-06T03:38:42.294Z,5.60
2023-03-06T03:41:09.830Z,6.70
2023-03-06T03:43:37.328Z,7.10
2023-03-06T03:46:06.045Z,6.70
2023-03-06T03:48:33.669Z,8.10
2023-03-06T03:51:01.212Z,6.10
2023-03-06T03:53:28.703Z,5.00
2023-03-06T03:55:56.171Z,6.70
2023-03-06T03:58:23.641Z,5.60
2023-03-06T04:00:51.129Z,6.60
2023-03-06T04:03:18.575Z,6.30
2023-03-06T04:05:46.238Z,5.50
2023-03-06T04:08:13.750Z,6.00
2023-03-06T04:10:41.505Z,5.90
2023-03-06T04:13:10.146Z,6.30
2023-03-06T04:15:37.827Z,7.30
2023-03-06T04:18:05.268Z,6.90
2023-03-06T04:20:32.751Z,6.30
2023-03-06T04:23:00.361Z,8.50
2023-03-06T04:25:27.809Z,6.40
2023-03-06T04:27:55.285Z,6.30
2023-03-06T04:30:22.854Z,5.10
2023-03-06T04:32:50.293Z,6.30
2023-03-06T04:35:18.146Z,5.60
2023-03-06T04:37:45.702Z,7.90
2023-03-06T04:40:13.191Z,5.90
2023-03-06T04:42:40.827Z,7.20
2023-03-06T04:45:08.335Z,6.70
2023-03-06T04:47:35.774Z,7.30
2023-03-06T04:50:03.964Z,7.00
2023-03-06T04:52:32.007Z,5.20
2023-03-06T04:54:59.483Z,7.30
2023-03-06T04:57:26.981Z,6.90
2023-03-06T04:59:54.442Z,5.50
2023-03-06T05:02:24.188Z,5.20
2023-03-06T05:04:51.932Z,6.50
2023-03-06T05:07:19.400Z,7.70
2023-03-06T05:09:46.876Z,6.70
2023-03-06T05:12:14.454Z,5.90
2023-03-06T05:14:42.255Z,5.60
2023-03-06T05:17:09.855Z,5.90
2023-03-06T05:19:37.325Z,6.00
2023-03-06T05:22:04.802Z,5.90
2023-03-06T05:24:32.386Z,6.70
2023-03-06T05:26:59.947Z,7.10
2023-03-06T05:29:27.602Z,7.60
2023-03-06T05:31:55.251Z,9.40
2023-03-06T05:34:22.815Z,7.10
2023-03-06T05:36:50.266Z,6.90
2023-03-06T05:39:17.859Z,8.50
2023-03-06T05:41:45.323Z,8.70
2023-03-06T05:44:12.825Z,8.30
2023-03-06T05:46:40.299Z,6.20
2023-03-06T05:49:07.915Z,7.50
2023-03-06T05:51:35.615Z,8.50
2023-03-06T05:54:03.038Z,8.80
2023-03-06T05:56:30.552Z,6.40
2023-03-06T05:58:58.028Z,6.50
2023-03-06T06:01:25.455Z,5.90
2023-03-06T06:03:53.099Z,7.10
2023-03-06T06:06:20.621Z,7.10
2023-03-06T06:08:48.166Z,7.30
2023-03-06T06:11:15.770Z,6.30
2023-03-06T06:13:43.307Z,7.90
2023-03-06T06:16:11.654Z,5.90
2023-03-06T06:18:41.129Z,8.30
2023-03-06T06:21:08.958Z,6.90
2023-03-06T06:23:36.434Z,6.70
2023-03-06T06:26:04.164Z,6.70
2023-03-06T06:28:31.653Z,8.30
2023-03-06T06:30:59.109Z,8.80
2023-03-06T06:33:26.756Z,6.10
2023-03-06T06:35:54.224Z,7.30
2023-03-06T06:38:21.730Z,8.50
2023-03-06T06:41:11.653Z,8.90
2023-03-06T06:43:36.656Z,6.00
2023-03-06T06:46:28.291Z,7.60
2023-03-06T06:48:54.585Z,7.60
2023-03-06T06:51:22.706Z,7.30
2023-03-06T06:53:50.171Z,7.80
2023-03-06T06:56:17.774Z,7.20
2023-03-06T06:58:45.404Z,6.60
2023-03-06T07:01:13.079Z,7.20
2023-03-06T07:03:40.737Z,6.70
2023-03-06T07:06:08.347Z,7.10
2023-03-06T07:08:35.826Z,8.20
2023-03-06T07:11:03.306Z,9.00
2023-03-06T07:13:30.802Z,6.90
2023-03-06T07:15:58.426Z,8.40
2023-03-06T07:18:25.937Z,9.70
2023-03-06T07:20:53.453Z,7.20
2023-03-06T07:23:20.911Z,7.50
2023-03-06T07:25:48.353Z,11.60
2023-03-06T07:28:18.486Z,7.10
2023-03-06T07:30:46.132Z,6.40
2023-03-06T07:33:13.587Z,8.00
2023-03-06T07:35:41.129Z,7.40
2023-03-06T07:38:08.727Z,6.80
2023-03-06T07:40:36.273Z,9.30
2023-03-06T07:43:18.356Z,6.70
2023-03-06T07:45:46.995Z,9.90
2023-03-06T07:48:14.988Z,7.80
2023-03-06T07:50:43.352Z,6.30
2023-03-06T07:53:11.645Z,6.50
2023-03-06T07:55:39.229Z,8.10
2023-03-06T07:58:06.802Z,10.10
2023-03-06T08:00:34.355Z,8.80
2023-03-06T08:03:01.898Z,8.60
2023-03-06T08:05:29.428Z,7.70
2023-03-06T08:07:57.473Z,6.10
2023-03-06T08:10:25.006Z,7.50
2023-03-06T08:12:52.567Z,6.80
2023-03-06T08:15:19.994Z,6.50
2023-03-06T08:17:47.582Z,6.60
2023-03-06T08:20:15.019Z,7.50
2023-03-06T08:22:42.560Z,8.60
2023-03-06T08:25:10.185Z,9.00
2023-03-06T08:27:37.722Z,9.10
2023-03-06T08:30:05.448Z,9.40
2023-03-06T08:32:32.951Z,9.90
2023-03-06T08:35:00.448Z,12.70
2023-03-06T08:37:27.926Z,9.60
2023-03-06T08:39:55.524Z,8.30
2023-03-06T08:42:22.956Z,10.90
2023-03-06T08:44:50.713Z,11.00
2023-03-06T08:47:18.225Z,11.40
2023-03-06T08:49:45.711Z,8.90
2023-03-06T08:52:13.256Z,10.20
2023-03-06T08:54:40.807Z,8.30
2023-03-06T08:57:09.192Z,7.90
2023-03-06T08:59:36.663Z,8.00
2023-03-06T09:02:05.457Z,8.70
2023-03-06T09:04:32.987Z,7.40
2023-03-06T09:07:00.455Z,7.80
2023-03-06T09:09:27.984Z,7.20
2023-03-06T09:11:56.338Z,7.30
2023-03-06T09:14:23.892Z,6.30
2023-03-06T09:16:51.608Z,6.50
2023-03-06T09:19:19.121Z,6.00
2023-03-06T09:21:46.818Z,7.40
2023-03-06T09:24:14.481Z,5.70
2023-03-06T09:26:46.874Z,5.70
2023-03-06T09:29:17.288Z,4.90
2023-03-06T09:31:44.903Z,7.50
2023-03-06T09:34:12.427Z,10.50
2023-03-06T09:36:54.982Z,8.20
2023-03-06T09:39:24.064Z,8.30
2023-03-06T09:41:51.619Z,6.90
2023-03-06T09:44:19.844Z,6.10
2023-03-06T09:46:47.342Z,7.70
2023-03-06T09:49:15.234Z,10.00
2023-03-06T09:51:42.694Z,6.60
2023-03-06T09:54:10.124Z,6.60
2023-03-06T09:56:37.621Z,6.30
2023-03-06T09:59:05.100Z,5.20
2023-03-06T10:01:33.032Z,5.10
2023-03-06T10:04:00.588Z,5.10
2023-03-06T10:06:30.971Z,3.60
2023-03-06T10:08:58.422Z,4.90
2023-03-06T10:11:25.923Z,6.20
2023-03-06T10:13:53.474Z,4.40
2023-03-06T10:16:20.955Z,4.30
2023-03-06T10:18:48.484Z,3.30
2023-03-06T10:21:19.324Z,5.40
2023-03-06T10:23:49.110Z,7.40
2023-03-06T10:26:16.901Z,3.90
2023-03-06T10:28:44.590Z,4.50
2023-03-06T10:31:12.140Z,5.90
2023-03-06T10:33:40.024Z,3.30
2023-03-06T10:36:07.679Z,4.80
2023-03-06T10:38:38.440Z,3.20
2023-03-06T10:41:06.269Z,3.60
2023-03-06T10:43:36.292Z,3.20
2023-03-06T10:46:05.116Z,4.40
2023-03-06T10:48:41.607Z,5.70
2023-03-06T10:51:17.749Z,7.30
2023-03-06T10:53:45.785Z,4.00
2023-03-06T10:56:13.327Z,4.30
2023-03-06T10:58:40.777Z,4.10
2023-03-06T11:01:08.436Z,2.70
2023-03-06T11:03:35.888Z,2.70
2023-03-06T11:06:04.072Z,4.90
2023-03-06T11:08:31.643Z,2.30
2023-03-06T11:10:59.203Z,4.70
2023-03-06T11:13:27.345Z,2.70
2023-03-06T11:15:54.865Z,2.40
2023-03-06T11:18:22.438Z,3.00
2023-03-06T11:20:53.039Z,3.20
2023-03-06T11:23:20.779Z,2.80
2023-03-06T11:25:51.064Z,4.60
2023-03-06T11:28:18.642Z,4.60
2023-03-06T11:30:46.315Z,3.30
2023-03-06T11:33:13.785Z,3.90
2023-03-06T11:35:41.467Z,4.20
2023-03-06T11:38:09.083Z,4.90
2023-03-06T11:40:36.732Z,3.90
2023-03-06T11:43:04.342Z,4.40
2023-03-06T11:45:37.331Z,4.10
2023-03-06T11:48:04.909Z,5.20
2023-03-06T11:50:32.699Z,5.00
2023-03-06T11:53:00.292Z,5.70
2023-03-06T11:55:27.892Z,6.60
2023-03-06T11:57:55.371Z,6.30
2023-03-06T12:00:23.049Z,5.30
2023-03-06T12:02:50.525Z,4.90
2023-03-06T12:05:18.070Z,3.80
2023-03-06T12:07:45.562Z,4.50
2023-03-06T12:10:13.028Z,7.70
2023-03-06T12:12:40.690Z,5.00
2023-03-06T12:15:08.195Z,5.70
2023-03-06T12:17:35.619Z,4.40
2023-03-06T12:20:06.632Z,5.60
2023-03-06T12:22:34.149Z,5.70
2023-03-06T12:25:01.856Z,4.60
2023-03-06T12:27:29.749Z,3.80
2023-03-06T12:29:57.475Z,5.20
2023-03-06T12:32:24.980Z,6.10
2023-03-06T12:34:52.668Z,4.10
2023-03-06T12:37:20.514Z,4.80
2023-03-06T12:39:48.181Z,6.60
2023-03-06T12:42:22.879Z,4.90
2023-03-06T12:44:50.926Z,6.30
2023-03-06T12:47:18.402Z,7.30
2023-03-06T12:49:47.470Z,7.20
2023-03-06T12:52:18.519Z,6.70
2023-03-06T12:54:46.450Z,8.60
2023-03-06T12:57:13.918Z,7.90
2023-03-06T12:59:44.087Z,5.50
2023-03-06T13:02:11.620Z,5.80
2023-03-06T13:04:39.142Z,5.30
2023-03-06T13:07:06.645Z,5.60
2023-03-06T13:09:34.072Z,5.40
2023-03-06T13:12:01.511Z,8.40
2023-03-06T13:14:29.176Z,7.30
2023-03-06T13:16:56.859Z,6.50
2023-03-06T13:19:24.428Z,5.60
2023-03-06T13:21:51.966Z,7.20
2023-03-06T13:24:19.517Z,8.40
2023-03-06T13:26:47.156Z,7.50
2023-03-06T13:29:14.663Z,8.50
2023-03-06T13:31:45.024Z,7.80
2023-03-06T13:34:12.541Z,5.70
2023-03-06T13:36:40.033Z,7.70
2023-03-06T13:39:08.532Z,6.00
2023-03-06T13:41:37.523Z,5.80
2023-03-06T13:44:05.062Z,4.20
2023-03-06T13:46:35.233Z,4.70
2023-03-06T13:49:03.012Z,6.80
2023-03-06T13:51:30.542Z,5.30
2023-03-06T13:53:58.066Z,7.70
2023-03-06T13:56:25.516Z,9.40
2023-03-06T13:58:53.143Z,7.50
2023-03-06T14:01:20.650Z,7.90
2023-03-06T14:03:48.126Z,9.10
2023-03-06T14:06:15.586Z,8.20
2023-03-06T14:08:43.019Z,10.10
2023-03-06T14:11:10.702Z,9.50
2023-03-06T14:13:47.246Z,6.80
2023-03-06T14:16:15.407Z,8.40
2023-03-06T14:18:42.939Z,8.20
2023-03-06T14:21:13.200Z,7.60
2023-03-06T14:23:43.730Z,7.60
2023-03-06T14:26:15.059Z,5.90
2023-03-06T14:28:42.642Z,7.50
2023-03-06T14:31:10.182Z,8.20
2023-03-06T14:33:37.675Z,9.20
2023-03-06T14:36:05.216Z,15.20
2023-03-06T14:38:32.706Z,12.10
2023-03-06T14:41:00.326Z,12.50
2023-03-06T14:43:27.926Z,8.70
2023-03-06T14:45:55.440Z,7.90
2023-03-06T14:48:23.012Z,6.20
2023-03-06T14:50:50.486Z,5.80
2023-03-06T14:53:18.086Z,7.30
2023-03-06T14:55:45.567Z,9.10
2023-03-06T14:58:13.100Z,8.30
2023-03-06T15:00:40.890Z,8.00
2023-03-06T15:03:08.426Z,9.00
2023-03-06T15:05:35.899Z,8.30
2023-03-06T15:08:03.442Z,8.70
2023-03-06T15:10:30.974Z,7.60
2023-03-06T15:12:58.471Z,7.50
2023-03-06T15:15:26.160Z,11.30
2023-03-06T15:17:54.402Z,10.40
2023-03-06T15:20:21.889Z,11.90
2023-03-06T15:22:49.363Z,12.00
2023-03-06T15:25:16.781Z,13.20
2023-03-06T15:27:44.238Z,8.20
2023-03-06T15:30:11.755Z,9.40
2023-03-06T15:32:42.543Z,16.70
2023-03-06T15:35:10.129Z,18.30
2023-03-06T15:37:37.670Z,14.30
2023-03-06T15:40:06.730Z,11.60
2023-03-06T15:42:34.351Z,12.60
2023-03-06T15:45:03.404Z,13.10
2023-03-06T15:47:31.057Z,10.60
2023-03-06T15:49:58.597Z,9.00
2023-03-06T15:52:26.049Z,11.30
2023-03-06T15:54:53.510Z,13.60
2023-03-06T15:57:20.969Z,14.90
2023-03-06T15:59:48.529Z,17.30
2023-03-06T16:02:16.242Z,24.70
2023-03-06T16:04:43.854Z,17.30
2023-03-06T16:07:11.401Z,23.40
2023-03-06T16:09:38.838Z,41.70
2023-03-06T16:12:06.273Z,50.60
2023-03-06T16:14:33.769Z,53.90
2023-03-06T16:17:01.578Z,60.30
2023-03-06T16:19:29.204Z,46.30
2023-03-06T16:21:56.821Z,48.30
2023-03-06T16:24:26.119Z,44.50
2023-03-06T16:26:53.668Z,71.60
2023-03-06T16:29:21.204Z,77.00
2023-03-06T16:31:48.781Z,81.40
2023-03-06T16:34:16.305Z,104.20
2023-03-06T16:36:43.814Z,86.30
2023-03-06T16:39:11.317Z,83.50
2023-03-06T16:41:38.796Z,57.80
2023-03-06T16:44:07.833Z,17.40
2023-03-06T16:46:35.318Z,15.90
2023-03-06T16:49:02.776Z,13.50
2023-03-06T16:51:30.536Z,18.90
2023-03-06T16:53:57.994Z,22.80
2023-03-06T16:56:25.457Z,14.80
2023-03-06T16:58:52.992Z,15.70
2023-03-06T17:01:20.527Z,13.50
2023-03-06T17:03:48.274Z,13.20
2023-03-06T17:06:15.845Z,14.50
2023-03-06T17:08:43.443Z,32.70
2023-03-06T17:11:10.897Z,24.90
2023-03-06T17:13:38.453Z,34.60
2023-03-06T17:16:06.194Z,29.00
2023-03-06T17:18:33.856Z,22.50
2023-03-06T17:21:01.442Z,24.60
2023-03-06T17:23:29.664Z,14.30
2023-03-06T17:25:57.121Z,12.30
2023-03-06T17:28:24.634Z,15.20
2023-03-06T17:30:52.106Z,25.90
2023-03-06T17:33:19.633Z,26.70
2023-03-06T17:35:49.138Z,20.70
2023-03-06T17:38:16.629Z,19.80
2023-03-06T17:40:44.090Z,21.40
2023-03-06T17:43:11.564Z,13.00
2023-03-06T17:45:39.019Z,13.20
2023-03-06T17:48:06.630Z,10.80
2023-03-06T17:50:34.153Z,9.00
2023-03-06T17:53:01.600Z,11.30
2023-03-06T17:55:29.907Z,10.70
2023-03-06T17:57:57.636Z,12.00
2023-03-06T18:00:25.194Z,11.10
2023-03-06T18:02:53.271Z,10.90
2023-03-06T18:05:23.284Z,13.50
2023-03-06T18:07:50.773Z,14.00
2023-03-06T18:10:18.291Z,16.10
2023-03-06T18:12:45.864Z,17.30
2023-03-06T18:15:13.534Z,12.30
2023-03-06T18:17:40.974Z,15.10
2023-03-06T18:20:08.475Z,15.90
2023-03-06T18:22:36.068Z,18.30
2023-03-06T18:25:03.558Z,16.50
2023-03-06T18:27:31.234Z,15.30
2023-03-06T18:29:58.709Z,15.20
2023-03-06T18:32:26.213Z,15.40
2023-03-06T18:34:55.208Z,18.70
2023-03-06T18:37:22.728Z,20.80
2023-03-06T18:39:50.242Z,23.50
2023-03-06T18:42:18.520Z,20.00
2023-03-06T18:44:48.075Z,19.00
2023-03-06T18:47:16.416Z,16.30
2023-03-06T18:49:49.791Z,15.80
2023-03-06T18:52:19.305Z,23.10
2023-03-06T18:54:50.020Z,25.90
2023-03-06T18:57:18.783Z,29.40
2023-03-06T18:59:47.778Z,32.20
2023-03-06T19:02:15.839Z,26.30
2023-03-06T19:04:43.680Z,27.50
2023-03-06T19:07:11.435Z,30.40
2023-03-06T19:09:38.943Z,19.60
2023-03-06T19:12:06.455Z,14.80
2023-03-06T19:14:36.267Z,16.50
2023-03-06T19:17:04.260Z,16.60
2023-03-06T19:19:31.734Z,15.00
2023-03-06T19:21:59.295Z,16.50
2023-03-06T19:24:27.008Z,14.40
2023-03-06T19:26:54.529Z,15.20
2023-03-06T19:29:22.469Z,11.90
2023-03-06T19:31:52.376Z,13.10
2023-03-06T19:34:19.952Z,11.60
2023-03-06T19:36:48.361Z,12.30
2023-03-06T19:39:18.257Z,16.10
2023-03-06T19:41:47.776Z,14.60
2023-03-06T19:44:16.388Z,12.90
2023-03-06T19:46:43.936Z,15.00
2023-03-06T19:49:12.196Z,14.80
2023-03-06T19:51:39.713Z,20.00
2023-03-06T19:54:09.955Z,17.70
2023-03-06T19:56:37.485Z,20.80
2023-03-06T19:59:05.047Z,19.00
2023-03-06T20:01:34.371Z,16.20
2023-03-06T20:04:02.194Z,14.70
2023-03-06T20:06:29.757Z,18.80
2023-03-06T20:08:57.351Z,20.40
2023-03-06T20:11:24.979Z,18.30
2023-03-06T20:13:52.536Z,17.30
2023-03-06T20:16:20.085Z,19.00
2023-03-06T20:18:47.769Z,19.90
2023-03-06T20:21:15.412Z,14.30
2023-03-06T20:23:43.346Z,14.20
2023-03-06T20:26:11.875Z,15.90
2023-03-06T20:28:39.511Z,14.90
2023-03-06T20:31:07.779Z,13.10
2023-03-06T20:33:35.368Z,16.10
2023-03-06T20:36:03.031Z,17.30
2023-03-06T20:38:30.796Z,19.60
2023-03-06T20:40:59.727Z,23.80
2023-03-06T20:43:27.249Z,29.60
2023-03-06T20:45:54.776Z,29.70
2023-03-06T20:48:22.288Z,25.10
2023-03-06T20:50:49.771Z,18.80
2023-03-06T20:53:17.412Z,24.80
2023-03-06T20:55:47.927Z,21.30
2023-03-06T20:58:16.934Z,21.70
2023-03-06T21:00:44.412Z,29.00
2023-03-06T21:03:11.929Z,22.00
2023-03-06T21:05:39.548Z,19.60
2023-03-06T21:08:07.315Z,19.30
2023-03-06T21:10:34.749Z,25.00
2023-03-06T21:13:02.263Z,19.40
2023-03-06T21:15:30.846Z,19.80
2023-03-06T21:17:58.320Z,20.50
2023-03-06T21:20:25.768Z,20.60
2023-03-06T21:22:53.326Z,21.30
2023-03-06T21:25:20.771Z,18.30
2023-03-06T21:27:48.364Z,14.40
2023-03-06T21:30:15.893Z,18.00
2023-03-06T21:32:43.518Z,20.30
2023-03-06T21:35:11.054Z,23.40
2023-03-06T21:37:38.758Z,29.80
2023-03-06T21:40:06.752Z,33.70
2023-03-06T21:42:35.862Z,25.50
2023-03-06T21:45:04.024Z,25.50
2023-03-06T21:47:37.725Z,27.60
2023-03-06T21:50:05.320Z,25.70
2023-03-06T21:52:32.763Z,24.80
2023-03-06T21:55:00.445Z,22.20
2023-03-06T21:57:27.964Z,28.00
2023-03-06T21:59:55.417Z,26.50
2023-03-06T22:02:22.879Z,21.30
2023-03-06T22:04:51.172Z,24.70
2023-03-06T22:07:18.681Z,23.60
2023-03-06T22:09:46.158Z,20.50
2023-03-06T22:12:13.763Z,22.60
2023-03-06T22:14:41.474Z,23.70
2023-03-06T22:17:09.093Z,32.30
2023-03-06T22:19:36.651Z,29.80
2023-03-06T22:22:04.111Z,26.50
2023-03-06T22:24:31.985Z,26.40
2023-03-06T22:26:59.588Z,27.00
2023-03-06T22:29:27.180Z,24.60
2023-03-06T22:31:54.677Z,25.00
2023-03-06T22:34:22.251Z,27.80
2023-03-06T22:36:49.750Z,28.60
2023-03-06T22:39:17.254Z,25.70
2023-03-06T22:41:44.741Z,33.70
2023-03-06T22:44:12.164Z,26.20
2023-03-06T22:46:39.657Z,26.70
2023-03-06T22:49:07.200Z,28.60
2023-03-06T22:51:37.436Z,30.70
2023-03-06T22:54:04.904Z,35.80
2023-03-06T22:56:32.579Z,32.30
2023-03-06T22:59:00.259Z,25.70
2023-03-06T23:01:27.807Z,30.60
2023-03-06T23:03:55.535Z,30.00
2023-03-06T23:06:23.661Z,28.00
2023-03-06T23:08:51.142Z,44.70
2023-03-06T23:11:19.787Z,40.50
2023-03-06T23:13:47.321Z,68.40
2023-03-06T23:16:14.960Z,96.30
2023-03-06T23:18:42.518Z,86.70
2023-03-06T23:21:09.975Z,89.90
2023-03-06T23:23:37.473Z,82.20
2023-03-06T23:26:04.966Z,91.20
2023-03-06T23:28:32.516Z,93.80
2023-03-06T23:31:00.214Z,80.80
2023-03-06T23:33:28.619Z,73.40
2023-03-06T23:35:56.267Z,82.40
2023-03-06T23:38:23.854Z,69.70
2023-03-06T23:40:51.404Z,55.40
2023-03-06T23:43:18.857Z,69.50
2023-03-06T23:45:46.354Z,39.10
2023-03-06T23:48:13.870Z,51.80
2023-03-06T23:50:41.399Z,49.70
2023-03-06T23:53:08.840Z,45.30
2023-03-06T23:55:36.403Z,38.30
2023-03-06T23:58:03.892Z,49.80
